Lindberg, Washington
Current Conditions -  °F | °C
As of 4:35 AM on Monday 20 Oct 2014 (Local Time) from KCLS Reporting Station
Overcast Overcast  
Wind Chill: 59°   Ceiling: 3400
Heat Index: 59°   Visibility: 10mi
Dew Point: 57°   Wind: 3mph
Humidity: 94%   Direction: NA
Pressure: 29.7"   Gusts: NA
Location:  46.5826°N, 122.285°W
Report Text: KCLS 201135Z AUTO VRB03KT 10SM OVC034 15/14 A2970 RMK AO2
Loading
Personal Weather Stations






























Interactive Weather Map
Tropical Storm Tracking
New forecast layout! Learn more

10-Day Weather Forecast

Advertisements
Track Severe Weather on mobile